Time;durP1;ratioP1;P1;durP2;ratioP2;P2;SDS_P1;SDS_P2;PMS_P1;PMS_P2;Temp;Humidity;BMP_temperature;BMP_pressure;BME280_temperature;BME280_humidity;BME280_pressure;Samples;Min_cycle;Max_cycle;Signal;HPM_P1;HPM_P2
2021/09/11 00:00:52;;;;;;;27.35;16.60;;;;;;;16.68;58.87;99287.30;1870701;76;22108;-62
2021/09/11 00:03:27;;;;;;;24.10;15.28;;;;;;;16.65;58.49;99279.95;1870667;76;22566;-63
2021/09/11 00:06:03;;;;;;;24.55;14.15;;;;;;;16.63;58.25;99281.26;1870460;76;22189;-63
2021/09/11 00:08:38;;;;;;;26.12;13.58;;;;;;;16.63;57.96;99278.66;1890233;76;22144;-65
2021/09/11 00:11:13;;;;;;;23.98;16.90;;;;;;;16.65;57.78;99281.26;1889955;76;22144;-61
2021/09/11 00:13:48;;;;;;;22.50;14.38;;;;;;;16.65;58.47;99287.33;1890057;76;22222;-65
2021/09/11 00:16:23;;;;;;;21.73;13.60;;;;;;;16.64;58.39;99283.00;1870685;76;22136;-67
2021/09/11 00:18:58;;;;;;;22.95;16.27;;;;;;;16.65;57.85;99286.02;1854696;76;28362;-65
2021/09/11 00:21:33;;;;;;;26.77;16.27;;;;;;;16.73;57.70;99279.89;1889994;76;22214;-63
2021/09/11 00:24:08;;;;;;;25.37;14.13;;;;;;;16.76;57.56;99281.16;1870758;76;22120;-65
2021/09/11 00:26:43;;;;;;;27.87;16.95;;;;;;;16.79;57.35;99283.77;1889988;76;22148;-67
2021/09/11 00:29:18;;;;;;;30.32;15.88;;;;;;;16.76;58.14;99277.25;1889979;76;22582;-62
2021/09/11 00:31:52;;;;;;;28.23;16.17;;;;;;;16.75;57.85;99279.44;1870710;76;22149;-62
2021/09/11 00:34:27;;;;;;;29.25;17.05;;;;;;;16.75;58.06;99274.23;1889973;76;22180;-64
2021/09/11 00:37:05;;;;;;;27.62;16.00;;;;;;;16.74;57.80;99278.58;1854627;76;27957;-56
2021/09/11 00:39:41;;;;;;;20.85;11.60;;;;;;;16.80;57.34;99282.91;1870473;76;22168;-62
2021/09/11 00:42:15;;;;;;;23.35;13.15;;;;;;;16.80;56.95;99285.06;1870682;76;22141;-67
2021/09/11 00:44:50;;;;;;;24.37;14.23;;;;;;;16.81;56.84;99282.87;1870797;76;22112;-65
2021/09/11 00:47:27;;;;;;;24.55;14.68;;;;;;;16.80;57.22;99285.06;1870468;76;22570;-66
2021/09/11 00:50:03;;;;;;;30.60;17.50;;;;;;;16.78;57.32;99282.05;1870679;76;22563;-60
2021/09/11 00:52:41;;;;;;;27.75;17.95;;;;;;;16.74;57.95;99279.89;1870621;76;22117;-62
2021/09/11 00:55:17;;;;;;;31.27;15.93;;;;;;;16.71;57.98;99287.30;1870682;76;22137;-66
2021/09/11 00:57:53;;;;;;;23.07;14.65;;;;;;;16.70;57.63;99289.45;1889971;76;22188;-63
2021/09/11 01:00:47;;;;;;;20.85;13.85;;;;;;;16.73;57.21;99286.41;1889885;76;22202;-64
2021/09/11 01:03:22;;;;;;;23.55;14.75;;;;;;;16.75;57.02;99285.95;1870678;76;22108;-68
2021/09/11 01:05:56;;;;;;;22.07;14.07;;;;;;;16.76;56.99;99282.46;1870698;76;22116;-59
2021/09/11 01:08:33;;;;;;;21.30;14.05;;;;;;;16.74;57.14;99280.30;1870678;76;22133;-65
2021/09/11 01:11:09;;;;;;;22.07;13.28;;;;;;;16.74;57.23;99277.69;1870688;76;22212;-63
2021/09/11 01:13:45;;;;;;;20.43;13.35;;;;;;;16.71;57.60;99284.69;1890027;76;20097;-62
2021/09/11 01:16:19;;;;;;;24.60;14.70;;;;;;;16.72;57.71;99279.03;1854798;76;27925;-66
2021/09/11 01:18:54;;;;;;;25.37;14.13;;;;;;;16.76;57.64;99278.55;1889959;76;22131;-68
2021/09/11 01:21:29;;;;;;;21.65;13.78;;;;;;;16.75;57.78;99284.20;1870696;76;22109;-64
2021/09/11 01:24:04;;;;;;;21.82;14.07;;;;;;;16.73;57.53;99275.53;1889964;76;22136;-61
2021/09/11 01:26:39;;;;;;;31.85;15.05;;;;;;;16.70;57.67;99272.52;1870712;76;22148;-69
2021/09/11 01:29:14;;;;;;;22.75;15.93;;;;;;;16.69;57.94;99266.89;1890091;76;22578;-67
2021/09/11 01:31:48;;;;;;;22.32;14.47;;;;;;;16.68;58.55;99267.75;1870828;76;22112;-68
2021/09/11 01:34:30;;;;;;;23.55;15.28;;;;;;;16.65;58.25;99262.57;1889948;76;22164;-66
2021/09/11 01:37:09;;;;;;;22.90;14.18;;;;;;;16.63;58.38;99270.84;1870692;76;22521;-64
2021/09/11 01:39:46;;;;;;;22.80;13.40;;;;;;;16.61;57.48;99262.20;1870686;76;22250;-70
2021/09/11 01:42:24;;;;;;;21.00;12.68;;;;;;;16.61;57.11;99259.59;1889998;76;22139;-61
2021/09/11 01:45:02;;;;;;;19.07;12.75;;;;;;;16.62;57.04;99259.14;1870724;76;22546;-68
2021/09/11 01:47:40;;;;;;;21.00;13.05;;;;;;;16.60;57.08;99257.84;1870447;76;22582;-67
2021/09/11 01:50:21;;;;;;;24.45;13.38;;;;;;;16.58;57.34;99259.59;1870697;76;20200;-66
2021/09/11 01:52:56;;;;;;;23.87;15.60;;;;;;;16.56;57.38;99258.73;1890115;76;22112;-67
2021/09/11 01:55:31;;;;;;;24.65;14.50;;;;;;;16.52;57.51;99258.35;1870641;76;22109;-63
2021/09/11 01:58:06;;;;;;;22.32;13.50;;;;;;;16.50;57.56;99257.49;1870695;76;22554;-71
2021/09/11 02:00:41;;;;;;;22.62;14.70;;;;;;;16.48;57.62;99261.84;1890092;76;22119;-66
2021/09/11 02:03:15;;;;;;;21.80;14.23;;;;;;;16.45;57.60;99256.22;1870696;76;22113;-64
2021/09/11 02:05:50;;;;;;;24.18;14.63;;;;;;;16.43;57.71;99264.48;1870702;76;22149;-64
2021/09/11 02:08:25;;;;;;;18.85;12.65;;;;;;;16.42;57.77;99260.61;1870709;76;22558;-65
2021/09/11 02:10:59;;;;;;;18.23;12.85;;;;;;;16.41;57.74;99258.86;1870775;76;22137;-67
2021/09/11 02:13:34;;;;;;;18.80;13.22;;;;;;;16.39;57.66;99265.41;1870708;76;22141;-60
2021/09/11 02:16:11;;;;;;;22.10;13.90;;;;;;;16.39;57.79;99263.24;1870429;76;22172;-66
2021/09/11 02:18:46;;;;;;;21.15;13.72;;;;;;;16.37;57.87;99257.17;1870636;76;22251;-60
2021/09/11 02:21:41;;;;;;;21.10;14.55;;;;;;;16.36;57.90;99261.52;1870435;76;22170;-63
2021/09/11 02:24:16;;;;;;;25.10;15.05;;;;;;;16.35;58.12;99258.92;1870701;76;22108;-60
2021/09/11 02:27:10;;;;;;;21.23;13.45;;;;;;;16.36;58.15;99267.14;1890087;76;22229;-67
2021/09/11 02:30:05;;;;;;;25.30;15.03;;;;;;;16.33;57.96;99268.03;1870682;76;22133;-61
2021/09/11 02:32:40;;;;;;;24.77;15.88;;;;;;;16.33;57.91;99261.97;1870535;76;22146;-66
2021/09/11 02:35:15;;;;;;;29.15;17.20;;;;;;;16.34;57.98;99263.72;1870664;76;22599;-61
2021/09/11 02:37:51;;;;;;;26.52;17.73;;;;;;;16.31;58.20;99263.30;1870620;76;22185;-62
2021/09/11 02:40:45;;;;;;;26.93;16.55;;;;;;;16.28;58.22;99264.19;1889977;76;22144;-63
2021/09/11 02:43:20;;;;;;;25.17;15.60;;;;;;;16.25;58.27;99261.58;1870696;76;22543;-67
2021/09/11 02:45:56;;;;;;;22.40;14.07;;;;;;;16.22;58.31;99261.61;1870521;76;22171;-63
2021/09/11 02:48:32;;;;;;;24.70;14.30;;;;;;;16.22;58.39;99262.05;1889950;76;22136;-59
2021/09/11 02:51:08;;;;;;;25.00;14.23;;;;;;;16.21;58.51;99261.64;1889956;76;22139;-62
2021/09/11 02:53:43;;;;;;;20.50;14.23;;;;;;;16.20;58.52;99263.35;1890006;76;22148;-59
2021/09/11 02:56:19;;;;;;;23.00;14.20;;;;;;;16.21;58.41;99255.98;1889968;76;22577;-65
2021/09/11 02:58:54;;;;;;;24.10;15.28;;;;;;;16.25;58.24;99260.72;1870707;76;22183;-70
2021/09/11 03:01:29;;;;;;;23.95;16.35;;;;;;;16.27;58.10;99262.44;1870729;76;22140;-64
2021/09/11 03:04:24;;;;;;;22.70;14.85;;;;;;;16.30;58.00;99264.60;1870450;76;22176;-63
2021/09/11 03:06:59;;;;;;;24.82;16.80;;;;;;;16.32;57.85;99258.95;1890008;76;22152;-68
2021/09/11 03:09:40;;;;;;;26.17;16.12;;;;;;;16.32;57.82;99264.16;1869788;76;22161;-60
2021/09/11 03:12:15;;;;;;;25.55;17.70;;;;;;;16.34;57.82;99261.11;1889924;76;22136;-68
2021/09/11 03:14:50;;;;;;;28.85;18.77;;;;;;;16.35;57.72;99258.92;1854651;76;27953;-59
2021/09/11 03:17:25;;;;;;;26.45;18.12;;;;;;;16.41;57.65;99260.16;1890051;76;22152;-63
2021/09/11 03:20:00;;;;;;;27.65;16.85;;;;;;;16.43;57.64;99260.58;1889983;76;22103;-68
2021/09/11 03:22:36;;;;;;;30.68;18.60;;;;;;;16.45;57.75;99266.64;1870681;76;22113;-62
2021/09/11 03:25:11;;;;;;;29.52;19.27;;;;;;;16.46;57.72;99262.30;1854786;76;28354;-61
2021/09/11 03:27:46;;;;;;;29.40;20.80;;;;;;;16.52;57.71;99265.31;1854823;76;28341;-65
2021/09/11 03:30:21;;;;;;;28.52;18.20;;;;;;;16.58;57.66;99267.85;1889996;76;22155;-67
2021/09/11 03:32:56;;;;;;;25.57;16.45;;;;;;;16.58;57.60;99271.31;1870710;76;22125;-68
2021/09/11 03:35:31;;;;;;;22.80;15.63;;;;;;;16.59;57.55;99268.27;1889976;76;22124;-67
2021/09/11 03:38:06;;;;;;;23.50;15.32;;;;;;;16.63;57.46;99267.38;1870714;76;22121;-69
2021/09/11 03:40:41;;;;;;;26.00;14.65;;;;;;;16.68;57.35;99270.80;1889935;76;22139;-64
2021/09/11 03:43:16;;;;;;;25.72;17.95;;;;;;;16.73;57.23;99274.67;1854807;76;28348;-65
2021/09/11 03:45:51;;;;;;;27.70;17.73;;;;;;;16.81;56.93;99276.35;1870655;76;22148;-69
2021/09/11 03:48:26;;;;;;;25.05;16.90;;;;;;;16.85;56.76;99272.00;1870777;76;22137;-65
2021/09/11 03:51:02;;;;;;;23.55;16.70;;;;;;;16.89;56.54;99271.06;1870679;76;22100;-63
2021/09/11 03:53:56;;;;;;;22.55;15.98;;;;;;;16.91;56.42;99269.31;1870669;76;22539;-63
2021/09/11 03:56:31;;;;;;;23.92;15.90;;;;;;;16.93;56.31;99271.47;1890018;76;22167;-61
2021/09/11 03:59:06;;;;;;;26.48;15.65;;;;;;;16.98;56.21;99274.90;1890111;76;22597;-65
2021/09/11 04:01:41;;;;;;;22.62;15.75;;;;;;;17.02;56.07;99274.00;1870705;76;22159;-62
2021/09/11 04:04:35;;;;;;;25.45;14.73;;;;;;;17.08;55.91;99272.62;1870886;76;22133;-63
2021/09/11 04:07:09;;;;;;;24.02;14.53;;;;;;;17.12;55.79;99270.83;1870016;76;22564;-69
2021/09/11 04:09:46;;;;;;;23.00;13.78;;;;;;;17.19;55.67;99272.95;1890037;76;22163;-65
2021/09/11 04:12:26;;;;;;;20.60;13.70;;;;;;;17.26;55.41;99278.52;1869851;76;22190;-63
2021/09/11 04:15:04;;;;;;;23.55;16.77;;;;;;;17.31;55.36;99278.89;1873980;76;27960;-66
2021/09/11 04:17:39;;;;;;;24.37;15.70;;;;;;;17.42;55.28;99278.76;1870739;76;22152;-66
2021/09/11 04:20:14;;;;;;;21.27;14.43;;;;;;;17.46;55.23;99279.60;1870684;76;22109;-64
2021/09/11 04:23:08;;;;;;;20.52;13.93;;;;;;;17.51;55.17;99277.80;1889964;76;22560;-64
2021/09/11 04:25:44;;;;;;;26.45;15.15;;;;;;;17.55;55.29;99282.97;1870666;76;22117;-64
2021/09/11 04:28:19;;;;;;;27.42;17.55;;;;;;;17.61;55.34;99282.03;1889961;76;22155;-65
2021/09/11 04:30:54;;;;;;;24.95;16.77;;;;;;;17.66;55.65;99287.20;1870761;76;22136;-64
2021/09/11 04:33:32;;;;;;;25.52;16.57;;;;;;;17.71;55.94;99281.47;1889955;76;22249;-67
2021/09/11 04:36:07;;;;;;;26.85;18.73;;;;;;;17.75;56.67;99284.45;1870715;76;22116;-65
2021/09/11 04:38:43;;;;;;;25.62;16.87;;;;;;;17.82;56.93;99280.91;1870335;76;20105;-67
2021/09/11 04:41:19;;;;;;;30.97;20.20;;;;;;;18.08;57.00;99278.38;1836683;76;28437;-65
2021/09/11 04:43:54;;;;;;;27.50;19.12;;;;;;;20.54;52.89;99279.77;1854008;76;22165;-64
2021/09/11 04:46:29;;;;;;;30.37;20.08;;;;;;;20.67;52.52;99281.67;1853044;76;22164;-66
2021/09/11 04:49:04;;;;;;;32.25;21.17;;;;;;;21.96;49.99;99282.09;1853510;76;28118;-70
2021/09/11 04:51:39;;;;;;;26.23;18.80;;;;;;;23.24;47.08;99283.59;1855935;76;22189;-70
2021/09/11 04:54:34;;;;;;;31.33;18.42;;;;;;;24.76;45.57;99285.69;1855662;76;22165;-66
2021/09/11 04:57:15;;;;;;;24.90;18.15;;;;;;;26.04;43.57;99292.81;1817578;77;22269;-63
2021/09/11 04:59:50;;;;;;;25.02;17.23;;;;;;;27.10;41.64;99293.39;1855329;76;22257;-71
2021/09/11 05:02:32;;;;;;;26.10;17.95;;;;;;;28.28;39.03;99298.52;1869042;76;22240;-65
2021/09/11 05:05:10;;;;;;;27.48;17.50;;;;;;;29.39;37.22;99295.59;1855978;76;22610;-64
2021/09/11 05:07:54;;;;;;;27.02;17.10;;;;;;;30.43;35.46;99305.94;1889924;76;22136;-66
2021/09/11 05:10:34;;;;;;;26.35;18.73;;;;;;;31.46;33.79;99305.72;1869984;76;22141;-73
2021/09/11 05:13:08;;;;;;;32.93;18.60;;;;;;;32.30;32.39;99314.37;1870635;76;22140;-65
2021/09/11 05:15:43;;;;;;;25.48;17.92;;;;;;;33.08;31.18;99323.28;1867634;76;22725;-65
2021/09/11 05:18:19;;;;;;;32.65;18.87;;;;;;;33.85;29.80;99322.66;1873838;76;27936;-65
2021/09/11 05:20:54;;;;;;;25.82;17.40;;;;;;;34.55;28.79;99325.94;1870661;76;22054;-63
2021/09/11 05:23:35;;;;;;;23.90;17.30;;;;;;;35.27;27.81;99331.16;1889944;76;22122;-64
2021/09/11 05:26:10;;;;;;;35.80;19.75;;;;;;;35.80;27.22;99333.23;1870650;76;22070;-66
2021/09/11 05:28:45;;;;;;;30.35;20.00;;;;;;;36.28;26.37;99339.75;1870674;76;22474;-67
2021/09/11 05:31:38;;;;;;;30.43;18.40;;;;;;;36.68;25.28;99345.56;1889972;76;22219;-66
2021/09/11 05:34:14;;;;;;;27.60;18.12;;;;;;;36.98;24.85;99346.42;1870743;76;22078;-65
2021/09/11 05:36:50;;;;;;;28.05;19.45;;;;;;;37.01;24.37;99346.13;1870700;76;22078;-64
2021/09/11 05:39:25;;;;;;;26.42;19.17;;;;;;;37.16;24.51;99344.73;1870557;76;22508;-65
2021/09/11 05:42:19;;;;;;;25.27;18.32;;;;;;;37.49;24.23;99350.61;1870621;76;22473;-66
2021/09/11 05:45:00;;;;;;;31.07;18.48;;;;;;;36.86;24.40;99353.28;1889903;76;22113;-68
2021/09/11 05:47:43;;;;;;;27.55;17.57;;;;;;;36.34;24.85;99348.62;1879953;76;22213;-63
2021/09/11 05:50:24;;;;;;;30.97;17.82;;;;;;;36.07;25.06;99351.44;1848825;76;22122;-65
2021/09/11 05:52:59;;;;;;;29.45;18.80;;;;;;;36.17;24.96;99353.31;1835149;76;27946;-66
2021/09/11 05:55:40;;;;;;;23.73;18.42;;;;;;;36.65;24.32;99349.89;1863704;76;22561;-64
2021/09/11 05:58:17;;;;;;;28.50;18.57;;;;;;;36.98;23.97;99353.16;1844557;77;22133;-66
2021/09/11 06:00:58;;;;;;;22.20;17.23;;;;;;;37.24;23.75;99348.05;1864872;76;22140;-68
2021/09/11 06:03:34;;;;;;;24.95;16.07;;;;;;;37.32;23.52;99350.34;1861840;76;22214;-64
2021/09/11 06:06:08;;;;;;;22.67;16.25;;;;;;;37.23;23.35;99347.20;1825159;76;28461;-66
2021/09/11 06:08:49;;;;;;;18.87;14.30;;;;;;;37.41;23.07;99346.45;1871386;76;22373;-66
2021/09/11 06:11:24;;;;;;;22.90;14.30;;;;;;;37.68;23.03;99350.59;1866076;76;22090;-65
2021/09/11 06:14:00;;;;;;;22.73;14.47;;;;;;;38.30;22.24;99356.77;1851156;76;22138;-65
2021/09/11 06:16:40;;;;;;;23.27;14.38;;;;;;;38.87;21.81;99360.06;1881012;76;22097;-66
2021/09/11 06:19:21;;;;;;;21.62;12.68;;;;;;;39.28;21.49;99363.11;1889936;76;22105;-68
2021/09/11 06:21:56;;;;;;;18.20;12.53;;;;;;;39.83;20.85;99366.89;1870641;76;22094;-66
2021/09/11 06:24:31;;;;;;;17.12;11.45;;;;;;;40.34;20.31;99373.20;1889934;76;22082;-66
2021/09/11 06:27:07;;;;;;;15.45;10.65;;;;;;;40.74;19.81;99374.34;1889955;76;22097;-63
2021/09/11 06:29:43;;;;;;;19.80;11.73;;;;;;;40.78;19.33;99373.48;1889840;76;22479;-64
2021/09/11 06:32:17;;;;;;;20.35;12.58;;;;;;;40.53;19.83;99368.51;1870673;76;22125;-66
2021/09/11 06:34:52;;;;;;;17.95;11.53;;;;;;;40.48;20.08;99373.57;1890019;76;22046;-65
2021/09/11 06:37:27;;;;;;;18.65;11.45;;;;;;;40.41;20.23;99369.86;1889911;76;22171;-65
2021/09/11 06:40:05;;;;;;;18.05;11.45;;;;;;;40.28;20.39;99369.81;1869982;76;22114;-62
2021/09/11 06:42:39;;;;;;;15.60;10.55;;;;;;;40.62;20.13;99375.64;1844168;76;22136;-63
2021/09/11 06:45:14;;;;;;;15.08;10.20;;;;;;;41.08;19.69;99370.63;1889963;76;22146;-65
2021/09/11 06:47:49;;;;;;;13.83;8.03;;;;;;;41.79;19.21;99379.04;1870598;76;22562;-67
2021/09/11 06:50:24;;;;;;;9.68;7.42;;;;;;;42.15;18.28;99379.43;1870685;76;22058;-65
2021/09/11 06:53:18;;;;;;;9.48;6.42;;;;;;;42.27;17.93;99386.67;1870466;76;22094;-63
2021/09/11 06:55:54;;;;;;;8.63;6.05;;;;;;;42.14;17.89;99380.46;1870476;76;22079;-66
2021/09/11 06:58:30;;;;;;;11.20;6.12;;;;;;;42.06;17.60;99389.48;1870347;76;22124;-63
2021/09/11 07:01:04;;;;;;;16.02;7.50;;;;;;;41.76;17.82;99389.72;1870741;76;22058;-62
2021/09/11 07:03:40;;;;;;;10.20;6.47;;;;;;;41.48;18.33;99381.63;1870738;76;22073;-65
2021/09/11 07:06:20;;;;;;;11.55;6.75;;;;;;;41.46;18.21;99395.34;1862598;76;22239;-67
2021/09/11 07:09:15;;;;;;;17.25;9.05;;;;;;;41.45;18.43;99390.95;1845438;76;22092;-64
2021/09/11 07:12:10;;;;;;;17.45;8.88;;;;;;;41.32;18.77;99386.06;1869545;76;22190;-67
2021/09/11 07:14:45;;;;;;;15.75;8.30;;;;;;;40.97;19.30;99382.64;1869872;76;22216;-61
2021/09/11 07:17:20;;;;;;;13.20;7.92;;;;;;;40.85;19.31;99386.70;1869766;76;22090;-67
2021/09/11 07:19:54;;;;;;;11.50;7.40;;;;;;;40.60;19.55;99384.94;1870680;76;22046;-65
2021/09/11 07:22:29;;;;;;;14.33;8.03;;;;;;;40.95;19.24;99381.13;1870695;76;22654;-61
2021/09/11 07:25:07;;;;;;;10.40;7.22;;;;;;;41.15;19.16;99382.51;1889968;76;22544;-66
2021/09/11 07:27:43;;;;;;;12.37;7.70;;;;;;;41.53;18.88;99382.84;1870545;76;22090;-63
2021/09/11 07:30:18;;;;;;;15.05;7.08;;;;;;;41.41;18.88;99379.59;1890092;76;22113;-65
2021/09/11 07:32:52;;;;;;;12.30;7.53;;;;;;;41.33;19.04;99377.42;1870679;76;22618;-64
2021/09/11 07:35:27;;;;;;;11.35;7.20;;;;;;;41.02;19.42;99383.50;1870684;76;22082;-66
2021/09/11 07:38:02;;;;;;;13.28;7.35;;;;;;;41.08;19.41;99377.39;1870750;76;22046;-64
2021/09/11 07:40:55;;;;;;;16.77;7.58;;;;;;;41.45;19.09;99381.47;1870623;76;22074;-65
2021/09/11 07:43:32;;;;;;;14.18;7.80;;;;;;;41.55;18.84;99383.52;1889980;76;22066;-65
2021/09/11 07:46:31;;;;;;;14.33;7.92;;;;;;;41.55;18.99;99380.80;1869836;76;22086;-66
2021/09/11 07:49:06;;;;;;;12.98;7.65;;;;;;;41.32;19.11;99380.64;1870642;76;22481;-62
2021/09/11 07:51:41;;;;;;;14.28;6.92;;;;;;;41.28;18.75;99391.98;1870640;76;22651;-62
2021/09/11 07:54:17;;;;;;;11.85;7.40;;;;;;;40.31;19.46;99386.22;1870481;76;22048;-63
2021/09/11 07:57:12;;;;;;;14.53;7.78;;;;;;;40.16;19.72;99383.27;1870423;76;22077;-66
2021/09/11 08:00:07;;;;;;;15.55;7.55;;;;;;;39.30;20.39;99375.96;1870654;76;22054;-67
2021/09/11 08:02:41;;;;;;;12.93;7.95;;;;;;;39.38;20.64;99373.85;1868478;76;22071;-62
2021/09/11 08:05:16;;;;;;;14.13;7.33;;;;;;;40.24;20.13;99379.26;1873084;75;22159;-60
2021/09/11 08:07:51;;;;;;;10.35;7.65;;;;;;;39.58;20.08;99373.14;1901423;75;22195;-61
2021/09/11 08:10:25;;;;;;;15.32;7.50;;;;;;;38.13;21.38;99364.65;1895524;76;22082;-57
2021/09/11 08:13:00;;;;;;;10.85;7.85;;;;;;;37.88;21.62;99363.97;1870748;76;22071;-59
2021/09/11 08:15:54;;;;;;;11.08;7.37;;;;;;;37.84;21.90;99359.89;1870524;76;22086;-58
2021/09/11 08:18:29;;;;;;;13.48;7.25;;;;;;;38.04;21.85;99358.83;1870608;76;22721;-59
2021/09/11 08:21:04;;;;;;;10.63;7.28;;;;;;;38.39;21.58;99358.53;1870632;76;22071;-59
2021/09/11 08:23:41;;;;;;;12.78;6.83;;;;;;;38.35;21.69;99358.52;1870759;76;22172;-58
2021/09/11 08:26:16;;;;;;;11.78;7.10;;;;;;;38.21;21.73;99359.34;1870404;76;22098;-59
2021/09/11 08:28:51;;;;;;;11.00;6.92;;;;;;;38.04;21.97;99356.14;1870391;76;22183;-60
2021/09/11 08:31:45;;;;;;;8.95;7.08;;;;;;;37.65;22.17;99352.20;1870554;76;22630;-65
2021/09/11 08:34:20;;;;;;;9.65;7.53;;;;;;;37.51;22.61;99354.05;1870620;76;22079;-61
2021/09/11 08:36:55;;;;;;;12.98;7.35;;;;;;;37.35;22.79;99347.39;1889826;76;22101;-61
2021/09/11 08:39:30;;;;;;;11.15;8.20;;;;;;;37.14;22.50;99345.36;1861962;76;22570;-63
2021/09/11 08:42:05;;;;;;;11.65;8.15;;;;;;;36.68;23.19;99350.45;1854867;76;28319;-64
2021/09/11 08:44:40;;;;;;;11.90;7.70;;;;;;;36.40;23.44;99338.64;1853485;76;22219;-61
2021/09/11 08:47:15;;;;;;;13.30;8.30;;;;;;;36.00;23.86;99340.88;1862962;76;22632;-58
2021/09/11 08:49:50;;;;;;;13.68;8.13;;;;;;;35.58;24.32;99339.63;1870607;76;22513;-59
2021/09/11 08:52:34;;;;;;;11.22;8.53;;;;;;;34.14;25.58;99323.03;1869820;76;22087;-56
2021/09/11 08:55:09;;;;;;;12.93;8.55;;;;;;;32.84;27.60;99319.75;1889960;76;22647;-56
2021/09/11 08:58:07;;;;;;;10.63;9.33;;;;;;;32.26;28.65;99320.89;1870016;76;22190;-56
2021/09/11 09:00:52;;;;;;;17.45;9.33;;;;;;;32.14;28.67;99314.66;1889897;76;22085;-58
2021/09/11 09:03:40;;;;;;;13.20;9.75;;;;;;;31.56;29.46;99312.11;1869739;76;22086;-61
2021/09/11 09:06:25;;;;;;;15.72;9.75;;;;;;;31.09;29.77;99308.21;1889812;76;22125;-62
2021/09/11 09:09:12;;;;;;;14.35;8.73;;;;;;;30.56;30.47;99303.31;1889887;76;22239;-63
2021/09/11 09:11:47;;;;;;;14.65;8.93;;;;;;;30.13;31.15;99302.97;1874577;76;22499;-61
2021/09/11 09:14:23;;;;;;;13.30;8.83;;;;;;;29.88;31.52;99298.83;1853079;76;22121;-60
2021/09/11 09:17:04;;;;;;;12.33;8.98;;;;;;;29.63;31.62;99291.87;1851870;76;22086;-60
2021/09/11 09:19:39;;;;;;;11.78;8.05;;;;;;;28.92;32.94;99290.45;1850888;76;22105;-61
2021/09/11 09:22:20;;;;;;;11.20;8.25;;;;;;;28.15;32.79;99290.86;1853693;76;22114;-59
2021/09/11 09:24:54;;;;;;;14.23;9.40;;;;;;;27.56;33.77;99286.55;1847455;76;22121;-59
2021/09/11 09:27:36;;;;;;;14.55;9.58;;;;;;;27.22;35.21;99274.21;1856557;76;22221;-63
2021/09/11 09:30:12;;;;;;;19.67;10.43;;;;;;;27.14;35.98;99277.70;1851995;76;22232;-62
2021/09/11 09:32:51;;;;;;;16.85;11.50;;;;;;;27.08;36.00;99271.41;1853541;76;22769;-62
2021/09/11 09:35:34;;;;;;;15.20;10.97;;;;;;;26.99;36.94;99277.55;1847050;76;27956;-60
2021/09/11 09:38:26;;;;;;;16.55;9.50;;;;;;;27.08;35.96;99277.56;1870538;76;22562;-64
2021/09/11 09:41:06;;;;;;;15.70;9.50;;;;;;;26.88;35.90;99275.94;1850011;76;22171;-67
2021/09/11 09:43:43;;;;;;;15.55;10.70;;;;;;;26.68;36.87;99278.73;1852108;76;22165;-69
2021/09/11 09:46:20;;;;;;;16.20;10.15;;;;;;;26.31;36.80;99273.92;1870646;76;22106;-65
2021/09/11 09:48:59;;;;;;;12.73;8.85;;;;;;;26.06;37.54;99273.77;1870594;76;22575;-67
2021/09/11 09:51:33;;;;;;;14.18;9.93;;;;;;;25.84;38.26;99268.59;1889906;76;22150;-64
2021/09/11 09:54:28;;;;;;;14.87;10.87;;;;;;;25.52;38.31;99270.95;1847769;76;28032;-62
2021/09/11 09:57:24;;;;;;;13.53;9.83;;;;;;;25.26;38.51;99268.13;1866526;76;22191;-66
2021/09/11 10:00:18;;;;;;;17.10;10.70;;;;;;;25.33;39.35;99264.30;1854741;76;27944;-65
2021/09/11 10:02:54;;;;;;;16.25;10.03;;;;;;;25.38;38.52;99256.64;1844682;76;28387;-64
2021/09/11 10:05:29;;;;;;;11.78;9.78;;;;;;;25.37;38.10;99258.91;1850844;76;22668;-64
2021/09/11 10:08:10;;;;;;;13.20;9.33;;;;;;;25.51;37.00;99255.15;1789823;77;28018;-61
2021/09/11 10:11:11;;;;;;;14.45;10.20;;;;;;;25.56;37.52;99258.44;1852031;76;20234;-62
2021/09/11 10:14:02;;;;;;;14.05;10.20;;;;;;;25.48;38.24;99255.30;1861642;76;22179;-62
2021/09/11 10:16:44;;;;;;;14.15;10.50;;;;;;;25.56;38.15;99249.19;1854722;76;27931;-63
2021/09/11 10:19:23;;;;;;;12.35;9.55;;;;;;;25.72;37.97;99251.53;1870598;76;22176;-60
2021/09/11 10:22:24;;;;;;;17.70;9.90;;;;;;;25.68;37.78;99247.30;1867964;76;22145;-62
2021/09/11 10:25:10;;;;;;;14.50;9.43;;;;;;;25.63;38.27;99244.02;1866851;76;22599;-62
2021/09/11 10:28:18;;;;;;;15.83;9.93;;;;;;;25.75;38.30;99247.89;1836341;76;27890;-61
2021/09/11 10:31:12;;;;;;;14.45;9.70;;;;;;;25.83;37.39;99239.59;1855938;76;22183;-59
2021/09/11 10:33:54;;;;;;;12.05;8.88;;;;;;;25.85;37.22;99247.00;1849534;76;22180;-62
2021/09/11 10:36:48;;;;;;;14.90;9.03;;;;;;;25.88;36.94;99234.51;1852961;76;22867;-62
2021/09/11 10:39:43;;;;;;;13.40;10.15;;;;;;;25.87;36.83;99237.22;1851474;76;22172;-63
2021/09/11 10:43:06;;;;;;;14.38;9.75;;;;;;;25.77;36.89;99229.70;1852498;76;22566;-65
2021/09/11 10:45:58;;;;;;;16.87;9.00;;;;;;;25.70;36.86;99234.88;1854038;76;22205;-62
2021/09/11 10:48:54;;;;;;;16.77;9.10;;;;;;;25.67;36.34;99231.06;1855992;76;22155;-62
2021/09/11 10:52:11;;;;;;;12.30;9.20;;;;;;;25.69;35.91;99234.47;1852650;76;22131;-65
2021/09/11 10:55:38;;;;;;;12.33;8.43;;;;;;;25.73;35.47;99224.63;1865909;75;22208;-64
2021/09/11 10:58:26;;;;;;;10.80;8.80;;;;;;;25.69;35.85;99227.86;1889916;76;22148;-62
2021/09/11 11:01:01;;;;;;;16.37;8.10;;;;;;;25.84;36.00;99222.79;1870538;76;22145;-65
2021/09/11 11:03:39;;;;;;;13.00;8.45;;;;;;;25.89;34.60;99227.43;1870378;76;22148;-59
2021/09/11 11:06:16;;;;;;;15.70;8.10;;;;;;;25.94;36.28;99213.52;1889891;76;22120;-62
2021/09/11 11:08:52;;;;;;;13.13;8.43;;;;;;;26.10;36.65;99214.48;1870592;76;22113;-63
2021/09/11 11:11:27;;;;;;;12.30;8.60;;;;;;;26.35;35.21;99213.28;1870695;76;22156;-61
2021/09/11 11:14:02;;;;;;;13.05;8.20;;;;;;;26.48;34.40;99211.73;1870633;76;22152;-60
2021/09/11 11:16:51;;;;;;;12.33;8.38;;;;;;;26.48;34.05;99211.73;1889862;76;22176;-60
2021/09/11 11:19:29;;;;;;;12.90;8.98;;;;;;;26.46;33.39;99210.09;1870574;76;22169;-62
2021/09/11 11:22:15;;;;;;;15.08;9.58;;;;;;;26.38;33.38;99205.19;1889858;76;22188;-61
2021/09/11 11:24:51;;;;;;;11.30;8.38;;;;;;;26.49;33.72;99204.67;1866761;76;22144;-62
2021/09/11 11:27:47;;;;;;;19.98;10.93;;;;;;;26.60;33.51;99201.88;1855237;76;22616;-61
2021/09/11 11:30:21;;;;;;;19.20;10.28;;;;;;;26.71;34.96;99199.15;1889624;76;22167;-61
2021/09/11 11:33:05;;;;;;;17.62;9.93;;;;;;;26.90;35.07;99193.30;1869631;76;22160;-58
2021/09/11 11:35:42;;;;;;;17.55;9.65;;;;;;;27.04;34.37;99193.41;1889914;76;22596;-64
2021/09/11 11:38:18;;;;;;;12.45;8.60;;;;;;;27.23;33.59;99183.20;1854918;76;27916;-62
2021/09/11 11:40:54;;;;;;;11.10;8.00;;;;;;;27.30;32.32;99184.59;1870583;76;22116;-60
2021/09/11 11:43:33;;;;;;;11.38;8.35;;;;;;;27.37;31.69;99182.44;1870589;76;22141;-62
2021/09/11 11:46:06;;;;;;;9.58;7.58;;;;;;;27.38;31.50;99184.17;1870598;76;22121;-62
2021/09/11 11:48:41;;;;;;;12.58;8.95;;;;;;;27.32;31.79;99177.38;1889992;76;22116;-63
2021/09/11 11:51:42;;;;;;;12.30;8.90;;;;;;;27.22;32.91;99170.87;1889950;76;22641;-60
2021/09/11 11:54:38;;;;;;;16.23;9.85;;;;;;;27.32;33.09;99172.56;1870612;76;22136;-61
2021/09/11 11:57:33;;;;;;;14.03;9.98;;;;;;;27.35;33.14;99167.97;1867455;76;22185;-64
2021/09/11 12:00:12;;;;;;;15.63;9.75;;;;;;;27.31;32.69;99167.73;1870620;76;22140;-62
2021/09/11 12:02:48;;;;;;;13.78;9.40;;;;;;;27.26;32.96;99169.78;1870929;76;22171;-62
2021/09/11 12:05:27;;;;;;;15.70;9.70;;;;;;;27.29;33.37;99160.33;1870930;76;22141;-59
2021/09/11 12:08:05;;;;;;;14.28;9.20;;;;;;;27.29;33.17;99159.01;1870578;76;22282;-58
2021/09/11 12:10:40;;;;;;;15.20;9.38;;;;;;;27.26;33.03;99161.35;1889824;76;22152;-61
2021/09/11 12:13:15;;;;;;;12.93;9.70;;;;;;;27.22;33.47;99149.23;1870604;76;22587;-62
2021/09/11 12:15:50;;;;;;;13.62;9.65;;;;;;;27.30;33.52;99155.44;1870609;76;22220;-60